createdAt,value
2019-05-23T00:00:04.793Z,12.15
2019-05-23T00:01:04.926Z,12.10
2019-05-23T00:02:05.037Z,12.18
2019-05-23T00:03:05.180Z,12.17
2019-05-23T00:04:05.307Z,12.07
2019-05-23T00:05:05.437Z,12.13
2019-05-23T00:06:05.601Z,12.08
2019-05-23T00:07:05.743Z,12.13
2019-05-23T00:08:05.858Z,12.08
2019-05-23T00:09:05.990Z,12.15
2019-05-23T00:10:06.124Z,12.15
2019-05-23T00:11:06.249Z,12.15
2019-05-23T00:12:06.380Z,12.13
2019-05-23T00:13:06.507Z,12.17
2019-05-23T00:14:06.658Z,12.18
2019-05-23T00:15:06.788Z,12.04
2019-05-23T00:16:06.903Z,12.05
2019-05-23T00:17:07.046Z,12.11
2019-05-23T00:18:08.011Z,11.99
2019-05-23T00:19:07.279Z,12.08
2019-05-23T00:20:07.389Z,12.08
2019-05-23T00:21:07.522Z,12.03
2019-05-23T00:22:07.677Z,12.07
2019-05-23T00:23:07.794Z,12.03
2019-05-23T00:24:07.928Z,12.10
2019-05-23T00:25:08.049Z,12.10
2019-05-23T00:26:08.173Z,12.00
2019-05-23T00:27:08.307Z,12.03
2019-05-23T00:28:08.489Z,12.05
2019-05-23T00:29:10.330Z,12.00
2019-05-23T00:30:08.740Z,11.96
2019-05-23T00:31:08.878Z,11.99
2019-05-23T00:32:09.020Z,11.95
2019-05-23T00:33:09.150Z,11.96
2019-05-23T00:34:09.279Z,12.00
2019-05-23T00:35:09.393Z,11.97
2019-05-23T00:36:09.523Z,11.89
2019-05-23T00:37:09.646Z,11.93
2019-05-23T00:38:09.778Z,11.93
2019-05-23T00:39:09.907Z,11.89
2019-05-23T00:40:10.042Z,11.91
2019-05-23T00:41:10.161Z,11.95
2019-05-23T00:42:10.291Z,11.96
2019-05-23T00:43:10.429Z,11.89
2019-05-23T00:44:10.537Z,12.00
2019-05-23T00:45:10.665Z,11.96
2019-05-23T00:46:10.794Z,11.88
2019-05-23T00:47:10.924Z,11.91
2019-05-23T00:48:11.047Z,11.93
2019-05-23T00:49:11.177Z,11.84
2019-05-23T00:50:11.307Z,11.79
2019-05-23T00:51:11.433Z,11.88
2019-05-23T00:52:11.584Z,11.79
2019-05-23T00:53:11.691Z,11.80
2019-05-23T00:54:11.829Z,11.88
2019-05-23T00:55:11.963Z,11.82
2019-05-23T00:56:12.089Z,11.79
2019-05-23T00:57:12.219Z,11.74
2019-05-23T00:58:12.372Z,11.73
2019-05-23T00:59:25.898Z,11.69
2019-05-23T01:00:12.630Z,11.74
2019-05-23T01:01:12.755Z,11.74
2019-05-23T01:02:12.897Z,11.66
2019-05-23T01:03:13.024Z,11.69
2019-05-23T01:04:13.153Z,11.62
2019-05-23T01:05:13.274Z,11.62
2019-05-23T01:06:13.402Z,11.59
2019-05-23T01:07:13.526Z,11.61
2019-05-23T01:08:13.648Z,11.69
2019-05-23T01:09:13.777Z,11.55
2019-05-23T01:10:13.902Z,11.59
2019-05-23T01:11:14.046Z,11.58
2019-05-23T01:12:14.206Z,11.59
2019-05-23T01:13:14.319Z,11.61
2019-05-23T01:14:14.441Z,11.62
2019-05-23T01:15:14.600Z,11.56
2019-05-23T01:16:14.722Z,11.58
2019-05-23T01:17:14.840Z,11.56
2019-05-23T01:18:14.975Z,11.56
2019-05-23T01:19:15.116Z,11.61
2019-05-23T01:20:15.243Z,11.55
2019-05-23T01:21:15.374Z,11.55
2019-05-23T01:22:15.614Z,11.52
2019-05-23T01:23:15.664Z,11.52
2019-05-23T01:24:15.798Z,11.55
2019-05-23T01:25:15.920Z,11.62
2019-05-23T01:26:16.054Z,11.52
2019-05-23T01:27:16.177Z,11.59
2019-05-23T01:28:16.306Z,11.54
2019-05-23T01:29:16.443Z,11.49
2019-05-23T01:30:16.573Z,11.55
2019-05-23T01:31:16.698Z,11.58
2019-05-23T01:32:16.824Z,11.55
2019-05-23T01:33:16.946Z,11.58
2019-05-23T01:34:17.098Z,11.58
2019-05-23T01:35:17.227Z,11.56
2019-05-23T01:36:17.356Z,11.52
2019-05-23T01:37:17.482Z,11.51
2019-05-23T01:38:17.628Z,11.58
2019-05-23T01:39:17.770Z,11.45
2019-05-23T01:40:17.882Z,11.40
2019-05-23T01:41:18.010Z,11.49
2019-05-23T01:42:18.183Z,11.36
2019-05-23T01:43:18.319Z,11.43
2019-05-23T01:44:18.447Z,11.40
2019-05-23T01:45:18.578Z,11.48
2019-05-23T01:46:18.728Z,11.41
2019-05-23T01:47:18.851Z,11.40
2019-05-23T01:48:18.992Z,11.45
2019-05-23T01:49:19.118Z,11.43
2019-05-23T01:50:19.249Z,11.49
2019-05-23T01:51:19.373Z,11.37
2019-05-23T01:52:19.510Z,11.52
2019-05-23T01:53:19.645Z,11.46
2019-05-23T01:54:19.774Z,11.41
2019-05-23T01:55:19.902Z,11.41
2019-05-23T01:56:20.032Z,11.45
2019-05-23T01:57:20.160Z,11.52
2019-05-23T01:58:20.346Z,11.48
2019-05-23T01:59:20.417Z,11.51
2019-05-23T02:00:20.547Z,11.48
2019-05-23T02:01:20.682Z,11.51
2019-05-23T02:02:20.831Z,11.40
2019-05-23T02:03:20.958Z,11.48
2019-05-23T02:04:21.088Z,11.46
2019-05-23T02:05:21.229Z,11.51
2019-05-23T02:06:21.345Z,11.33
2019-05-23T02:07:21.474Z,11.41
2019-05-23T02:08:21.625Z,11.45
2019-05-23T02:09:21.761Z,11.36
2019-05-23T02:10:21.902Z,11.37
2019-05-23T02:11:22.020Z,11.34
2019-05-23T02:12:22.146Z,11.37
2019-05-23T02:13:22.296Z,11.31
2019-05-23T02:14:22.422Z,11.31
2019-05-23T02:15:22.548Z,11.33
2019-05-23T02:16:22.719Z,11.31
2019-05-23T02:17:22.833Z,11.33
2019-05-23T02:18:22.962Z,11.30
2019-05-23T02:19:23.100Z,11.25
2019-05-23T02:20:23.296Z,11.31
2019-05-23T02:21:23.365Z,11.28
2019-05-23T02:22:23.493Z,11.25
2019-05-23T02:23:23.606Z,11.22
2019-05-23T02:24:23.737Z,11.18
2019-05-23T02:25:23.862Z,11.20
2019-05-23T02:26:23.990Z,11.27
2019-05-23T02:27:24.133Z,11.25
2019-05-23T02:28:24.255Z,11.23
2019-05-23T02:29:24.383Z,11.23
2019-05-23T02:30:34.478Z,11.23
2019-05-23T02:31:24.670Z,11.19
2019-05-23T02:32:24.796Z,11.18
2019-05-23T02:33:24.926Z,11.22
2019-05-23T02:34:25.059Z,11.19
2019-05-23T02:35:25.214Z,11.16
2019-05-23T02:36:25.332Z,11.22
2019-05-23T02:37:25.458Z,11.18
2019-05-23T02:38:25.586Z,11.12
2019-05-23T02:39:25.724Z,11.22
2019-05-23T02:40:25.848Z,11.12
2019-05-23T02:41:25.972Z,11.12
2019-05-23T02:42:26.118Z,11.22
2019-05-23T02:43:26.253Z,11.23
2019-05-23T02:44:26.368Z,11.13
2019-05-23T02:45:26.493Z,11.08
2019-05-23T02:46:26.627Z,11.23
2019-05-23T02:47:26.773Z,11.12
2019-05-23T02:48:26.898Z,11.15
2019-05-23T02:49:27.030Z,11.11
2019-05-23T02:50:27.161Z,11.04
2019-05-23T02:51:27.362Z,11.19
2019-05-23T02:52:27.447Z,11.08
2019-05-23T02:53:27.577Z,11.05
2019-05-23T02:54:27.713Z,11.12
2019-05-23T02:55:27.857Z,11.04
2019-05-23T02:56:27.983Z,11.09
2019-05-23T02:57:28.113Z,11.09
2019-05-23T02:58:28.272Z,11.04
2019-05-23T02:59:28.394Z,11.12
2019-05-23T03:00:28.519Z,11.05
2019-05-23T03:01:28.646Z,11.16
2019-05-23T03:02:28.804Z,11.15
2019-05-23T03:03:28.942Z,11.12
2019-05-23T03:04:29.055Z,11.05
2019-05-23T03:05:29.194Z,11.04
2019-05-23T03:06:29.326Z,11.01
2019-05-23T03:07:29.459Z,11.13
2019-05-23T03:08:29.582Z,11.05
2019-05-23T03:09:29.725Z,11.00
2019-05-23T03:10:29.843Z,11.08
2019-05-23T03:11:29.975Z,10.94
2019-05-23T03:12:30.101Z,10.97
2019-05-23T03:13:30.267Z,11.00
2019-05-23T03:14:30.395Z,11.01
2019-05-23T03:15:30.520Z,11.00
2019-05-23T03:16:30.656Z,10.98
2019-05-23T03:17:30.810Z,11.03
2019-05-23T03:18:34.444Z,11.00
2019-05-23T03:19:31.083Z,11.03
2019-05-23T03:20:31.225Z,10.97
2019-05-23T03:21:31.350Z,11.04
2019-05-23T03:22:31.482Z,10.98
2019-05-23T03:23:31.608Z,10.93
2019-05-23T03:24:31.768Z,10.93
2019-05-23T03:25:31.894Z,11.01
2019-05-23T03:26:32.020Z,10.91
2019-05-23T03:27:32.145Z,10.90
2019-05-23T03:28:32.292Z,10.91
2019-05-23T03:29:32.425Z,10.94
2019-05-23T03:30:32.569Z,10.85
2019-05-23T03:31:33.346Z,10.80
2019-05-23T03:32:38.229Z,10.87
2019-05-23T03:33:32.919Z,10.94
2019-05-23T03:34:33.053Z,10.90
2019-05-23T03:35:33.195Z,10.83
2019-05-23T03:36:33.314Z,10.87
2019-05-23T03:37:33.458Z,10.83
2019-05-23T03:38:33.591Z,10.87
2019-05-23T03:39:33.757Z,10.85
2019-05-23T03:40:33.846Z,10.83
2019-05-23T03:41:33.971Z,10.90
2019-05-23T03:42:34.096Z,10.91
2019-05-23T03:43:34.250Z,10.90
2019-05-23T03:44:34.385Z,10.87
2019-05-23T03:45:39.209Z,10.86
2019-05-23T03:46:34.640Z,10.78
2019-05-23T03:47:34.793Z,10.68
2019-05-23T03:48:34.919Z,10.70
2019-05-23T03:49:35.050Z,10.70
2019-05-23T03:50:35.187Z,10.55
2019-05-23T03:51:35.319Z,10.61
2019-05-23T03:52:35.450Z,10.57
2019-05-23T03:53:35.579Z,10.64
2019-05-23T03:54:35.704Z,10.61
2019-05-23T03:55:35.855Z,10.64
2019-05-23T03:56:35.980Z,10.55
2019-05-23T03:57:36.096Z,10.55
2019-05-23T03:58:36.243Z,10.58
2019-05-23T03:59:36.381Z,10.57
2019-05-23T04:00:36.505Z,10.55
2019-05-23T04:01:47.745Z,10.67
2019-05-23T04:02:36.754Z,10.60
2019-05-23T04:03:39.813Z,10.60
2019-05-23T04:04:37.025Z,10.61
2019-05-23T04:05:37.155Z,10.68
2019-05-23T04:06:37.331Z,10.70
2019-05-23T04:07:37.421Z,10.67
2019-05-23T04:08:37.545Z,10.75
2019-05-23T04:09:37.677Z,10.82
2019-05-23T04:10:37.824Z,10.85
2019-05-23T04:11:37.958Z,10.91
2019-05-23T04:12:38.071Z,10.83
2019-05-23T04:13:38.210Z,10.83
2019-05-23T04:14:38.335Z,10.65
2019-05-23T04:15:38.477Z,10.78
2019-05-23T04:16:38.600Z,10.75
2019-05-23T04:17:38.757Z,10.78
2019-05-23T04:18:38.860Z,10.68
2019-05-23T04:19:38.992Z,10.72
2019-05-23T04:20:39.119Z,10.67
2019-05-23T04:21:39.246Z,10.61
2019-05-23T04:22:39.384Z,10.62
2019-05-23T04:23:39.512Z,10.65
2019-05-23T04:24:39.632Z,10.58
2019-05-23T04:25:39.771Z,10.62
2019-05-23T04:26:39.893Z,10.60
2019-05-23T04:27:40.050Z,10.48
2019-05-23T04:28:40.166Z,10.45
2019-05-23T04:29:40.301Z,10.36
2019-05-23T04:30:40.417Z,10.48
2019-05-23T04:31:40.558Z,10.43
2019-05-23T04:32:40.721Z,10.39
2019-05-23T04:33:40.830Z,10.41
2019-05-23T04:34:40.948Z,10.46
2019-05-23T04:35:41.081Z,10.42
2019-05-23T04:36:41.211Z,10.31
2019-05-23T04:37:41.353Z,10.23
2019-05-23T04:38:41.478Z,10.34
2019-05-23T04:39:41.694Z,10.36
2019-05-23T04:40:41.746Z,10.48
2019-05-23T04:41:41.869Z,10.48
2019-05-23T04:42:41.989Z,10.45
2019-05-23T04:43:42.147Z,10.41
2019-05-23T04:44:44.329Z,10.43
2019-05-23T04:45:42.416Z,10.43
2019-05-23T04:46:42.553Z,10.45
2019-05-23T04:47:42.764Z,10.42
2019-05-23T04:48:42.817Z,10.24
2019-05-23T04:49:42.947Z,10.24
2019-05-23T04:50:43.090Z,10.41
2019-05-23T04:51:43.243Z,10.14
2019-05-23T04:52:43.354Z,10.23
2019-05-23T04:53:43.471Z,10.17
2019-05-23T04:54:43.593Z,10.17
2019-05-23T04:55:43.724Z,10.24
2019-05-23T04:56:43.861Z,10.18
2019-05-23T04:57:43.986Z,10.20
2019-05-23T04:58:44.131Z,10.35
2019-05-23T04:59:44.256Z,10.31
2019-05-23T05:00:44.389Z,10.34
2019-05-23T05:01:44.530Z,10.46
2019-05-23T05:02:44.652Z,10.45
2019-05-23T05:03:44.774Z,10.34
2019-05-23T05:04:44.919Z,10.57
2019-05-23T05:05:45.092Z,10.43
2019-05-23T05:06:45.194Z,10.43
2019-05-23T05:07:45.380Z,10.43
2019-05-23T05:08:45.483Z,10.48
2019-05-23T05:09:45.599Z,10.49
2019-05-23T05:10:45.710Z,10.41
2019-05-23T05:11:45.838Z,10.42
2019-05-23T05:12:46.023Z,10.48
2019-05-23T05:13:46.171Z,10.65
2019-05-23T05:14:46.296Z,10.60
2019-05-23T05:15:46.442Z,10.57
2019-05-23T05:16:46.569Z,10.55
2019-05-23T05:17:46.698Z,10.60
2019-05-23T05:18:46.828Z,10.72
2019-05-23T05:19:47.005Z,10.78
2019-05-23T05:20:47.137Z,10.75
2019-05-23T05:21:47.268Z,10.64
2019-05-23T05:22:47.414Z,10.73
2019-05-23T05:23:47.553Z,10.76
2019-05-23T05:24:47.666Z,10.82
2019-05-23T05:25:47.789Z,10.65
2019-05-23T05:26:47.928Z,10.62
2019-05-23T05:27:48.066Z,10.65
2019-05-23T05:28:48.194Z,10.73
2019-05-23T05:29:48.326Z,10.72
2019-05-23T05:30:48.450Z,10.70
2019-05-23T05:31:48.600Z,10.73
2019-05-23T05:32:48.715Z,10.79
2019-05-23T05:33:48.840Z,10.80
2019-05-23T05:34:48.979Z,10.75
2019-05-23T05:35:49.157Z,10.62
2019-05-23T05:36:49.252Z,10.61
2019-05-23T05:37:49.390Z,10.65
2019-05-23T05:38:49.514Z,10.79
2019-05-23T05:39:49.644Z,10.75
2019-05-23T05:40:49.777Z,10.67
2019-05-23T05:41:49.931Z,10.78
2019-05-23T05:42:50.035Z,10.83
2019-05-23T05:43:50.159Z,10.82
2019-05-23T05:44:50.291Z,10.93
2019-05-23T05:45:50.414Z,10.95
2019-05-23T05:46:50.553Z,10.79
2019-05-23T05:47:50.688Z,10.83
2019-05-23T05:48:50.805Z,10.85
2019-05-23T05:49:50.943Z,10.70
2019-05-23T05:50:51.086Z,10.76
2019-05-23T05:51:51.212Z,10.85
2019-05-23T05:52:51.343Z,10.90
2019-05-23T05:53:51.470Z,10.86
2019-05-23T05:54:51.608Z,10.93
2019-05-23T05:55:51.817Z,10.98
2019-05-23T05:56:51.860Z,11.00
2019-05-23T05:57:51.990Z,11.08
2019-05-23T05:58:52.118Z,11.18
2019-05-23T05:59:52.246Z,11.15
2019-05-23T06:00:52.383Z,11.20
2019-05-23T06:01:52.508Z,11.19
2019-05-23T06:03:03.719Z,11.22
2019-05-23T06:03:52.775Z,11.22
2019-05-23T06:04:52.903Z,11.19
2019-05-23T06:05:53.029Z,11.28
2019-05-23T06:06:53.158Z,11.46
2019-05-23T06:07:53.290Z,11.41
2019-05-23T06:08:53.438Z,11.43
2019-05-23T06:09:53.543Z,11.52
2019-05-23T06:10:53.679Z,11.56
2019-05-23T06:11:53.822Z,11.56
2019-05-23T06:12:53.940Z,11.55
2019-05-23T06:13:54.273Z,11.61
2019-05-23T06:14:54.203Z,11.71
2019-05-23T06:15:54.325Z,11.80
2019-05-23T06:16:54.452Z,11.69
2019-05-23T06:17:54.581Z,11.79
2019-05-23T06:18:54.703Z,11.64
2019-05-23T06:19:54.850Z,11.69
2019-05-23T06:20:55.016Z,11.52
2019-05-23T06:21:55.112Z,11.54
2019-05-23T06:22:55.244Z,11.52
2019-05-23T06:23:55.369Z,11.55
2019-05-23T06:24:57.509Z,11.55
2019-05-23T06:25:55.637Z,11.56
2019-05-23T06:26:55.759Z,11.41
2019-05-23T06:27:55.887Z,11.34
2019-05-23T06:28:56.019Z,11.34
2019-05-23T06:29:56.159Z,11.36
2019-05-23T06:30:56.283Z,11.16
2019-05-23T06:31:56.415Z,11.22
2019-05-23T06:32:56.554Z,11.16
2019-05-23T06:33:56.674Z,11.36
2019-05-23T06:34:56.813Z,11.45
2019-05-23T06:35:56.940Z,11.52
2019-05-23T06:36:57.070Z,11.61
2019-05-23T06:37:57.350Z,11.71
2019-05-23T06:38:57.325Z,11.73
2019-05-23T06:39:57.470Z,11.82
2019-05-23T06:40:57.592Z,11.82
2019-05-23T06:41:57.714Z,11.85
2019-05-23T06:42:57.844Z,11.82
2019-05-23T06:43:57.973Z,11.82
2019-05-23T06:44:58.133Z,11.99
2019-05-23T06:45:58.236Z,11.99
2019-05-23T06:46:58.377Z,11.99
2019-05-23T06:47:58.497Z,12.00
2019-05-23T06:48:58.620Z,12.07
2019-05-23T06:49:58.752Z,12.15
2019-05-23T06:50:58.877Z,12.14
2019-05-23T06:51:59.008Z,12.26
2019-05-23T06:52:59.141Z,12.25
2019-05-23T06:53:59.268Z,12.23
2019-05-23T06:54:59.934Z,12.25
2019-05-23T06:55:59.527Z,12.32
2019-05-23T06:56:59.658Z,12.18
2019-05-23T06:57:59.794Z,12.25
2019-05-23T06:58:59.917Z,12.25
2019-05-23T07:00:00.044Z,12.32
2019-05-23T07:01:00.186Z,12.25
2019-05-23T07:02:00.318Z,12.29
2019-05-23T07:03:00.441Z,12.41
2019-05-23T07:04:00.577Z,12.43
2019-05-23T07:05:00.698Z,12.48
2019-05-23T07:06:00.839Z,12.61
2019-05-23T07:07:00.975Z,12.53
2019-05-23T07:08:01.104Z,12.59
2019-05-23T07:09:01.228Z,12.65
2019-05-23T07:10:01.598Z,12.72
2019-05-23T07:11:01.520Z,12.62
2019-05-23T07:12:01.659Z,12.62
2019-05-23T07:13:01.764Z,12.65
2019-05-23T07:14:01.894Z,12.72
2019-05-23T07:15:02.386Z,12.68
2019-05-23T07:16:02.154Z,12.81
2019-05-23T07:17:02.276Z,12.77
2019-05-23T07:18:02.422Z,12.84
2019-05-23T07:19:02.534Z,12.87
2019-05-23T07:20:02.660Z,12.98
2019-05-23T07:21:02.829Z,12.86
2019-05-23T07:22:02.939Z,13.13
2019-05-23T07:23:03.071Z,12.96
2019-05-23T07:24:03.190Z,13.11
2019-05-23T07:25:03.317Z,13.09
2019-05-23T07:26:03.448Z,13.17
2019-05-23T07:27:03.612Z,13.08
2019-05-23T07:28:03.722Z,13.14
2019-05-23T07:29:03.843Z,13.19
2019-05-23T07:30:03.969Z,13.21
2019-05-23T07:31:04.102Z,13.21
2019-05-23T07:32:04.243Z,13.29
2019-05-23T07:33:04.363Z,13.32
2019-05-23T07:34:04.494Z,13.45
2019-05-23T07:35:04.620Z,13.38
2019-05-23T07:36:04.756Z,13.45
2019-05-23T07:37:04.881Z,13.51
2019-05-23T07:38:05.032Z,13.49
2019-05-23T07:39:05.163Z,13.53
2019-05-23T07:40:05.276Z,13.68
2019-05-23T07:41:05.432Z,13.61
2019-05-23T07:42:05.559Z,13.67
2019-05-23T07:43:05.670Z,13.58
2019-05-23T07:44:05.845Z,13.75
2019-05-23T07:45:05.931Z,13.78
2019-05-23T07:46:06.073Z,13.75
2019-05-23T07:47:06.215Z,13.80
2019-05-23T07:48:06.347Z,13.86
2019-05-23T07:49:06.485Z,13.85
2019-05-23T07:50:06.608Z,13.86
2019-05-23T07:51:06.739Z,13.96
2019-05-23T07:52:06.872Z,13.97
2019-05-23T07:53:06.996Z,13.98
2019-05-23T07:54:07.128Z,14.05
2019-05-23T07:55:07.261Z,14.05
2019-05-23T07:56:07.387Z,14.16
2019-05-23T07:57:07.521Z,14.11
2019-05-23T07:58:07.651Z,14.23
2019-05-23T07:59:07.791Z,14.18
2019-05-23T08:00:07.993Z,14.30
2019-05-23T08:01:08.099Z,14.36
2019-05-23T08:02:08.179Z,14.37
2019-05-23T08:03:08.323Z,14.36
2019-05-23T08:04:20.437Z,14.46
2019-05-23T08:05:08.568Z,14.49
2019-05-23T08:06:08.710Z,14.52
2019-05-23T08:07:08.832Z,14.64
2019-05-23T08:08:09.230Z,14.56
2019-05-23T08:09:09.085Z,14.53
2019-05-23T08:10:09.236Z,14.55
2019-05-23T08:11:09.373Z,14.70
2019-05-23T08:12:09.502Z,14.66
2019-05-23T08:13:09.666Z,14.69
2019-05-23T08:14:12.086Z,14.74
2019-05-23T08:15:09.892Z,14.77
2019-05-23T08:16:10.018Z,14.83
2019-05-23T08:17:10.148Z,14.87
2019-05-23T08:18:10.279Z,14.74
2019-05-23T08:19:10.417Z,14.95
2019-05-23T08:20:10.542Z,14.90
2019-05-23T08:21:10.675Z,14.90
2019-05-23T08:22:10.805Z,15.01
2019-05-23T08:23:10.954Z,15.04
2019-05-23T08:24:11.081Z,15.10
2019-05-23T08:25:11.206Z,15.07
2019-05-23T08:26:11.341Z,15.23
2019-05-23T08:27:11.477Z,15.23
2019-05-23T08:28:11.593Z,15.27
2019-05-23T08:29:25.382Z,15.30
2019-05-23T08:30:11.863Z,15.29
2019-05-23T08:31:11.987Z,15.27
2019-05-23T08:32:12.113Z,15.38
2019-05-23T08:33:12.330Z,15.38
2019-05-23T08:34:12.385Z,15.51
2019-05-23T08:35:17.225Z,15.51
2019-05-23T08:36:12.647Z,15.45
2019-05-23T08:37:12.800Z,15.59
2019-05-23T08:38:12.920Z,15.73
2019-05-23T08:39:13.047Z,15.76
2019-05-23T08:40:13.178Z,15.78
2019-05-23T08:41:13.340Z,15.83
2019-05-23T08:42:13.450Z,15.88
2019-05-23T08:43:13.889Z,15.83
2019-05-23T08:44:13.718Z,15.88
2019-05-23T08:45:13.851Z,15.85
2019-05-23T08:46:13.992Z,15.93
2019-05-23T08:47:14.118Z,15.96
2019-05-23T08:48:14.254Z,16.02
2019-05-23T08:49:14.385Z,16.14
2019-05-23T08:50:14.507Z,16.13
2019-05-23T08:51:14.641Z,16.21
2019-05-23T08:52:14.777Z,16.28
2019-05-23T08:53:14.906Z,16.25
2019-05-23T08:54:15.095Z,16.18
2019-05-23T08:55:15.176Z,16.22
2019-05-23T08:56:18.785Z,16.32
2019-05-23T08:57:15.435Z,16.40
2019-05-23T08:58:15.571Z,16.36
2019-05-23T08:59:15.703Z,16.42
2019-05-23T09:00:15.837Z,16.44
2019-05-23T09:01:15.977Z,16.49
2019-05-23T09:02:16.106Z,16.52
2019-05-23T09:03:16.238Z,16.54
2019-05-23T09:04:16.373Z,16.74
2019-05-23T09:05:16.504Z,16.70
2019-05-23T09:06:16.638Z,16.67
2019-05-23T09:07:16.769Z,16.73
2019-05-23T09:08:17.431Z,16.77
2019-05-23T09:09:29.282Z,16.92
2019-05-23T09:10:17.160Z,16.94
2019-05-23T09:11:17.285Z,16.94
2019-05-23T09:12:17.434Z,16.90
2019-05-23T09:13:17.574Z,16.91
2019-05-23T09:14:17.701Z,16.92
2019-05-23T09:15:17.828Z,16.97
2019-05-23T09:16:17.972Z,17.02
2019-05-23T09:17:18.124Z,17.06
2019-05-23T09:18:18.250Z,17.02
2019-05-23T09:19:18.386Z,17.12
2019-05-23T09:20:18.508Z,17.06
2019-05-23T09:21:18.651Z,17.24
2019-05-23T09:22:18.780Z,17.16
2019-05-23T09:23:18.919Z,17.34
2019-05-23T09:24:19.058Z,17.20
2019-05-23T09:25:19.209Z,17.34
2019-05-23T09:26:19.322Z,17.24
2019-05-23T09:27:19.450Z,17.30
2019-05-23T09:28:19.586Z,17.34
2019-05-23T09:29:19.757Z,17.41
2019-05-23T09:30:19.871Z,17.49
2019-05-23T09:31:20.011Z,17.45
2019-05-23T09:32:20.146Z,17.46
2019-05-23T09:33:20.311Z,17.53
2019-05-23T09:34:20.445Z,17.59
2019-05-23T09:35:21.985Z,17.57
2019-05-23T09:36:20.699Z,17.73
2019-05-23T09:37:20.868Z,17.73
2019-05-23T09:38:20.989Z,17.73
2019-05-23T09:39:21.125Z,17.83
2019-05-23T09:40:21.267Z,17.87
2019-05-23T09:41:21.399Z,17.86
2019-05-23T09:42:21.542Z,17.88
2019-05-23T09:43:21.669Z,17.93
2019-05-23T09:44:21.852Z,17.93
2019-05-23T09:45:21.969Z,17.97
2019-05-23T09:46:22.096Z,18.08
2019-05-23T09:47:22.228Z,18.18
2019-05-23T09:48:22.399Z,17.99
2019-05-23T09:49:22.495Z,18.23
2019-05-23T09:50:22.635Z,18.06
2019-05-23T09:51:22.768Z,18.08
2019-05-23T09:52:22.980Z,18.13
2019-05-23T09:53:23.045Z,18.18
2019-05-23T09:54:23.183Z,18.31
2019-05-23T09:55:23.313Z,18.38
2019-05-23T09:56:23.462Z,18.46
2019-05-23T09:57:23.588Z,18.61
2019-05-23T09:58:23.728Z,18.56
2019-05-23T09:59:23.882Z,18.64
2019-05-23T10:00:24.027Z,18.74
2019-05-23T10:01:24.160Z,18.75
2019-05-23T10:02:24.290Z,18.81
2019-05-23T10:03:24.461Z,18.78
2019-05-23T10:04:24.589Z,18.82
2019-05-23T10:05:40.997Z,18.85
2019-05-23T10:06:24.902Z,18.89
2019-05-23T10:07:24.978Z,18.88
2019-05-23T10:08:25.154Z,18.85
2019-05-23T10:09:25.290Z,18.82
2019-05-23T10:10:25.414Z,18.82
2019-05-23T10:11:25.554Z,18.67
2019-05-23T10:12:25.689Z,18.63
2019-05-23T10:13:38.484Z,18.68
2019-05-23T10:14:25.950Z,18.82
2019-05-23T10:15:26.091Z,18.75
2019-05-23T10:16:26.234Z,18.70
2019-05-23T10:17:26.390Z,18.61
2019-05-23T10:18:26.499Z,18.76
2019-05-23T10:19:26.671Z,18.82
2019-05-23T10:20:26.795Z,18.78
2019-05-23T10:21:26.921Z,18.78
2019-05-23T10:22:27.055Z,18.81
2019-05-23T10:23:27.208Z,18.78
2019-05-23T10:24:27.338Z,18.82
2019-05-23T10:25:27.471Z,18.81
2019-05-23T10:26:27.608Z,18.67
2019-05-23T10:27:27.749Z,18.74
2019-05-23T10:28:27.887Z,18.79
2019-05-23T10:29:28.024Z,18.70
2019-05-23T10:30:28.155Z,18.67
2019-05-23T10:31:28.287Z,18.76
2019-05-23T10:32:28.423Z,18.81
2019-05-23T10:33:28.550Z,18.78
2019-05-23T10:34:28.679Z,18.88
2019-05-23T10:35:28.820Z,18.81
2019-05-23T10:36:28.959Z,18.94
2019-05-23T10:37:29.100Z,18.96
2019-05-23T10:38:29.607Z,18.96
2019-05-23T10:39:29.354Z,19.00
2019-05-23T10:40:29.500Z,19.05
2019-05-23T10:41:29.623Z,19.05
2019-05-23T10:42:29.756Z,19.05
2019-05-23T10:43:29.888Z,18.98
2019-05-23T10:44:30.024Z,19.09
2019-05-23T10:45:30.158Z,19.01
2019-05-23T10:46:30.355Z,19.15
2019-05-23T10:47:30.442Z,19.08
2019-05-23T10:48:30.557Z,19.26
2019-05-23T10:49:30.723Z,19.20
2019-05-23T10:50:43.668Z,19.32
2019-05-23T10:51:30.966Z,19.30
2019-05-23T10:52:31.101Z,19.32
2019-05-23T10:53:31.252Z,19.39
2019-05-23T10:54:31.398Z,19.53
2019-05-23T10:55:31.509Z,19.50
2019-05-23T10:56:31.648Z,19.63
2019-05-23T10:57:31.776Z,19.59
2019-05-23T10:58:31.905Z,19.53
2019-05-23T10:59:32.047Z,19.56
2019-05-23T11:00:32.181Z,19.56
2019-05-23T11:01:32.310Z,19.49
2019-05-23T11:02:32.450Z,19.52
2019-05-23T11:03:32.607Z,19.44
2019-05-23T11:04:32.735Z,19.54
2019-05-23T11:05:32.871Z,19.50
2019-05-23T11:06:33.003Z,19.63
2019-05-23T11:07:33.140Z,19.67
2019-05-23T11:08:33.273Z,19.72
2019-05-23T11:09:37.664Z,19.74
2019-05-23T11:10:33.540Z,19.86
2019-05-23T11:11:33.681Z,19.92
2019-05-23T11:12:33.809Z,19.84
2019-05-23T11:13:33.951Z,20.02
2019-05-23T11:14:34.079Z,20.05
2019-05-23T11:15:34.219Z,20.04
2019-05-23T11:16:34.342Z,20.15
2019-05-23T11:17:34.480Z,20.23
2019-05-23T11:18:34.612Z,20.15
2019-05-23T11:19:34.744Z,20.19
2019-05-23T11:20:36.170Z,20.08
2019-05-23T11:21:35.038Z,20.14
2019-05-23T11:22:35.168Z,20.25
2019-05-23T11:23:35.297Z,20.30
2019-05-23T11:24:35.436Z,20.41
2019-05-23T11:25:35.622Z,20.36
2019-05-23T11:26:35.710Z,20.22
2019-05-23T11:27:35.863Z,20.27
2019-05-23T11:28:36.003Z,20.25
2019-05-23T11:29:36.122Z,20.42
2019-05-23T11:30:36.266Z,20.30
2019-05-23T11:31:36.409Z,20.44
2019-05-23T11:32:36.540Z,20.52
2019-05-23T11:33:36.667Z,20.50
2019-05-23T11:34:36.796Z,20.48
2019-05-23T11:35:36.930Z,20.60
2019-05-23T11:36:37.350Z,20.64
2019-05-23T11:37:37.203Z,20.65
2019-05-23T11:38:37.352Z,20.67
2019-05-23T11:39:41.939Z,20.77
2019-05-23T11:40:37.613Z,20.80
2019-05-23T11:41:37.743Z,20.83
2019-05-23T11:42:37.890Z,20.80
2019-05-23T11:43:38.024Z,20.68
2019-05-23T11:44:38.157Z,20.67
2019-05-23T11:45:45.657Z,20.68
2019-05-23T11:46:38.417Z,20.75
2019-05-23T11:47:38.699Z,20.95
2019-05-23T11:48:38.687Z,20.95
2019-05-23T11:49:39.381Z,21.01
2019-05-23T11:50:38.955Z,21.00
2019-05-23T11:51:39.095Z,20.98
2019-05-23T11:52:39.227Z,20.97
2019-05-23T11:53:39.367Z,21.04
2019-05-23T11:54:39.501Z,21.04
2019-05-23T11:55:39.651Z,21.16
2019-05-23T11:56:39.794Z,21.14
2019-05-23T11:57:39.945Z,21.20
2019-05-23T11:58:40.064Z,21.23
2019-05-23T11:59:40.181Z,21.16
2019-05-23T12:00:40.354Z,21.22
2019-05-23T12:01:40.451Z,21.16
2019-05-23T12:02:40.584Z,21.20
2019-05-23T12:03:40.714Z,21.22
2019-05-23T12:04:40.872Z,21.25
2019-05-23T12:05:40.979Z,21.40
2019-05-23T12:06:54.397Z,21.40
2019-05-23T12:07:41.259Z,21.50
2019-05-23T12:08:41.390Z,21.44
2019-05-23T12:09:41.527Z,21.56
2019-05-23T12:10:41.667Z,21.62
2019-05-23T12:11:42.804Z,21.50
2019-05-23T12:12:41.959Z,21.41
2019-05-23T12:13:42.106Z,21.43
2019-05-23T12:14:42.247Z,21.50
2019-05-23T12:15:42.375Z,21.47
2019-05-23T12:16:42.524Z,21.50
2019-05-23T12:17:42.653Z,21.53
2019-05-23T12:18:42.780Z,21.58
2019-05-23T12:19:42.912Z,21.55
2019-05-23T12:20:43.059Z,21.60
2019-05-23T12:21:43.192Z,21.51
2019-05-23T12:22:43.443Z,21.62
2019-05-23T12:23:43.480Z,21.55
2019-05-23T12:24:43.612Z,21.50
2019-05-23T12:25:43.759Z,21.53
2019-05-23T12:26:43.890Z,21.47
2019-05-23T12:27:44.059Z,21.43
2019-05-23T12:28:44.171Z,21.47
2019-05-23T12:29:44.335Z,21.47
2019-05-23T12:30:44.434Z,21.53
2019-05-23T12:31:48.923Z,21.45
2019-05-23T12:32:44.711Z,21.55
2019-05-23T12:33:44.853Z,21.53
2019-05-23T12:35:08.036Z,21.71
2019-05-23T12:35:45.119Z,21.66
2019-05-23T12:36:45.256Z,21.56
2019-05-23T12:37:45.380Z,21.47
2019-05-23T12:38:45.510Z,21.51
2019-05-23T12:39:45.690Z,21.55
2019-05-23T12:40:45.819Z,21.50
2019-05-23T12:41:45.958Z,21.71
2019-05-23T12:42:46.098Z,21.80
2019-05-23T12:43:46.245Z,21.73
2019-05-23T12:44:46.406Z,21.62
2019-05-23T12:45:46.520Z,21.59
2019-05-23T12:46:46.648Z,21.66
2019-05-23T12:47:46.785Z,21.69
2019-05-23T12:48:46.919Z,21.66
2019-05-23T12:49:47.109Z,21.77
2019-05-23T12:50:47.290Z,21.73
2019-05-23T12:51:47.421Z,21.78
2019-05-23T12:52:47.553Z,21.80
2019-05-23T12:53:47.718Z,21.80